Steyregg, Austria
Current Conditions -  °F | °C
As of 12:50 AM on Thursday 23 Oct 2014 (Local Time) from LOWL Reporting Station
Rain Showers Rain Showers  
Wind Chill: 33°   Ceiling: 1100
Heat Index: 41°   Visibility: 3mi
Dew Point: 39°   Wind: 14mph
Humidity: 93%   Direction: 260°W
Pressure: 29.83"   Gusts: NA
Location:  48.29°N, 14.39°E
Report Text: LOWL 222250Z AUTO 26012KT 5000 -SHRA FEW009 BKN011 05/04 Q1010
Loading
Personal Weather Stations






























Interactive Weather Map
Tropical Storm Tracking
New forecast layout! Learn more

10-Day Weather Forecast

Advertisements
Track Severe Weather on mobile